createdAt,value
2018-04-01T00:01:57.496Z,73.20
2018-04-01T00:04:25.760Z,72.57
2018-04-01T00:06:54.057Z,71.73
2018-04-01T00:09:22.314Z,71.37
2018-04-01T00:11:50.557Z,77.87
2018-04-01T00:14:18.038Z,76.70
2018-04-01T00:16:45.538Z,77.40
2018-04-01T00:19:13.067Z,74.33
2018-04-01T00:21:40.535Z,78.80
2018-04-01T00:24:08.072Z,77.27
2018-04-01T00:26:35.548Z,75.13
2018-04-01T00:29:03.025Z,75.10
2018-04-01T00:31:31.319Z,68.00
2018-04-01T00:33:58.778Z,73.50
2018-04-01T00:36:27.086Z,71.50
2018-04-01T00:38:54.568Z,74.30
2018-04-01T00:41:22.087Z,71.67
2018-04-01T00:43:49.758Z,70.90
2018-04-01T00:46:18.045Z,68.47
2018-04-01T00:48:45.542Z,67.77
2018-04-01T00:51:13.061Z,70.20
2018-04-01T00:53:41.342Z,63.43
2018-04-01T00:56:08.834Z,64.23
2018-04-01T00:58:36.382Z,66.97
2018-04-01T01:01:04.638Z,67.00
2018-04-01T01:03:32.109Z,65.17
2018-04-01T01:06:00.441Z,63.80
2018-04-01T01:08:27.971Z,62.20
2018-04-01T01:10:56.311Z,65.53
2018-04-01T01:13:23.827Z,63.93
2018-04-01T01:15:51.292Z,59.93
2018-04-01T01:18:18.806Z,54.00
2018-04-01T01:20:46.341Z,60.70
2018-04-01T01:23:13.874Z,55.27
2018-04-01T01:25:41.367Z,58.50
2018-04-01T01:28:08.866Z,54.10
2018-04-01T01:30:37.371Z,56.63
2018-04-01T01:33:04.886Z,55.87
2018-04-01T01:35:32.389Z,54.33
2018-04-01T01:38:00.705Z,60.43
2018-04-01T01:40:28.246Z,55.83
2018-04-01T01:42:56.499Z,58.33
2018-04-01T01:45:24.028Z,59.67
2018-04-01T01:47:51.713Z,53.10
2018-04-01T01:50:19.211Z,51.70
2018-04-01T01:52:46.703Z,51.27
2018-04-01T01:55:14.206Z,51.70
2018-04-01T01:57:41.663Z,51.50
2018-04-01T02:00:09.208Z,50.60
2018-04-01T02:02:36.687Z,52.57
2018-04-01T02:05:04.441Z,50.77
2018-04-01T02:07:31.928Z,49.33
2018-04-01T02:09:59.408Z,52.80
2018-04-01T02:12:26.919Z,49.73
2018-04-01T02:14:54.914Z,49.00
2018-04-01T02:17:22.427Z,50.47
2018-04-01T02:19:49.950Z,47.57
2018-04-01T02:22:17.458Z,48.87
2018-04-01T02:24:44.937Z,45.50
2018-04-01T02:27:12.453Z,50.50
2018-04-01T02:29:40.024Z,45.97
2018-04-01T02:32:07.582Z,45.17
2018-04-01T02:34:35.177Z,46.80
2018-04-01T02:37:03.466Z,47.10
2018-04-01T02:39:31.693Z,47.77
2018-04-01T02:41:59.164Z,46.63
2018-04-01T02:44:26.701Z,47.27
2018-04-01T02:46:54.796Z,45.97
2018-04-01T02:49:22.307Z,50.27
2018-04-01T02:51:49.834Z,48.40
2018-04-01T02:54:17.337Z,47.10
2018-04-01T02:56:45.616Z,46.23
2018-04-01T02:59:13.125Z,52.73
2018-04-01T03:01:41.414Z,48.50
2018-04-01T03:04:08.894Z,47.13
2018-04-01T03:06:36.416Z,52.00
2018-04-01T03:09:04.448Z,48.53
2018-04-01T03:11:31.902Z,48.37
2018-04-01T03:14:00.186Z,50.50
2018-04-01T03:16:28.436Z,47.67
2018-04-01T03:18:55.930Z,50.70
2018-04-01T03:21:24.187Z,48.50
2018-04-01T03:23:51.660Z,50.40
2018-04-01T03:26:19.165Z,50.77
2018-04-01T03:28:46.643Z,51.43
2018-04-01T03:31:14.894Z,50.03
2018-04-01T03:33:42.405Z,50.70
2018-04-01T03:36:09.942Z,52.37
2018-04-01T03:38:38.208Z,53.00
2018-04-01T03:41:05.738Z,55.27
2018-04-01T03:43:33.225Z,50.03
2018-04-01T03:46:00.699Z,52.20
2018-04-01T03:48:28.250Z,53.20
2018-04-01T03:50:55.711Z,52.97
2018-04-01T03:53:23.227Z,54.93
2018-04-01T03:55:50.703Z,52.60
2018-04-01T03:58:18.199Z,50.20
2018-04-01T04:00:45.698Z,51.73
2018-04-01T04:03:13.213Z,54.77
2018-04-01T04:05:41.530Z,54.00
2018-04-01T04:08:08.998Z,50.00
2018-04-01T04:10:36.551Z,55.77
2018-04-01T04:13:04.856Z,53.27
2018-04-01T04:15:32.638Z,52.00
2018-04-01T04:18:00.142Z,52.87
2018-04-01T04:20:27.653Z,57.07
2018-04-01T04:22:55.187Z,53.23
2018-04-01T04:25:23.115Z,51.90
2018-04-01T04:27:50.642Z,54.80
2018-04-01T04:30:18.159Z,57.80
2018-04-01T04:32:46.420Z,55.50
2018-04-01T04:35:13.945Z,53.03
2018-04-01T04:37:41.410Z,52.37
2018-04-01T04:40:08.953Z,50.97
2018-04-01T04:42:37.224Z,51.80
2018-04-01T04:45:05.492Z,50.50
2018-04-01T04:47:32.984Z,48.17
2018-04-01T04:50:00.688Z,48.43
2018-04-01T04:52:28.414Z,47.50
2018-04-01T04:54:55.907Z,50.93
2018-04-01T04:57:23.457Z,47.03
2018-04-01T04:59:50.956Z,50.10
2018-04-01T05:02:18.467Z,47.23
2018-04-01T05:04:45.945Z,52.70
2018-04-01T05:07:13.533Z,49.23
2018-04-01T05:09:41.077Z,54.00
2018-04-01T05:12:09.241Z,52.77
2018-04-01T05:14:36.753Z,51.03
2018-04-01T05:17:04.311Z,49.80
2018-04-01T05:19:31.778Z,49.30
2018-04-01T05:21:59.251Z,47.47
2018-04-01T05:24:27.174Z,48.07
2018-04-01T05:26:54.811Z,46.47
2018-04-01T05:29:22.349Z,46.13
2018-04-01T05:31:51.254Z,46.80
2018-04-01T05:34:19.565Z,45.70
2018-04-01T05:36:47.153Z,42.57
2018-04-01T05:39:14.642Z,46.07
2018-04-01T05:41:42.250Z,43.77
2018-04-01T05:44:09.760Z,42.90
2018-04-01T05:46:37.241Z,40.60
2018-04-01T05:49:05.181Z,42.43
2018-04-01T05:51:32.706Z,43.63
2018-04-01T05:54:00.488Z,42.90
2018-04-01T05:56:28.223Z,43.77
2018-04-01T05:58:55.836Z,42.07
2018-04-01T06:01:23.315Z,40.40
2018-04-01T06:03:50.826Z,43.40
2018-04-01T06:06:18.320Z,43.47
2018-04-01T06:08:45.822Z,41.23
2018-04-01T06:11:13.308Z,41.83
2018-04-01T06:13:41.583Z,42.17
2018-04-01T06:16:09.032Z,43.33
2018-04-01T06:18:36.871Z,40.37
2018-04-01T06:21:05.219Z,36.90
2018-04-01T06:23:32.755Z,40.07
2018-04-01T06:26:01.054Z,38.40
2018-04-01T06:28:29.325Z,39.30
2018-04-01T06:30:56.859Z,40.40
2018-04-01T06:33:24.338Z,43.20
2018-04-01T06:35:51.808Z,41.03
2018-04-01T06:38:19.942Z,40.57
2018-04-01T06:40:48.179Z,39.37
2018-04-01T06:43:16.463Z,42.10
2018-04-01T06:45:43.923Z,40.10
2018-04-01T06:48:11.450Z,40.07
2018-04-01T06:50:39.174Z,41.47
2018-04-01T06:53:06.638Z,42.27
2018-04-01T06:55:34.161Z,42.37
2018-04-01T06:58:01.648Z,45.27
2018-04-01T07:00:29.111Z,43.10
2018-04-01T07:02:56.707Z,44.40
2018-04-01T07:05:24.298Z,43.20
2018-04-01T07:07:51.754Z,43.67
2018-04-01T07:10:19.255Z,47.07
2018-04-01T07:12:47.561Z,42.93
2018-04-01T07:15:15.091Z,48.33
2018-04-01T07:17:42.604Z,44.87
2018-04-01T07:20:10.169Z,49.60
2018-04-01T07:22:37.623Z,53.33
2018-04-01T07:25:05.134Z,51.53
2018-04-01T07:27:32.647Z,57.53
2018-04-01T07:30:00.203Z,54.10
2018-04-01T07:32:28.425Z,56.47
2018-04-01T07:34:55.960Z,56.80
2018-04-01T07:37:24.433Z,51.47
2018-04-01T07:39:53.694Z,63.60
2018-04-01T07:42:21.212Z,61.83
2018-04-01T07:44:48.722Z,65.17
2018-04-01T07:47:17.205Z,59.73
2018-04-01T07:49:44.729Z,64.60
2018-04-01T07:52:12.231Z,54.17
2018-04-01T07:54:39.727Z,52.90
2018-04-01T07:57:07.254Z,53.33
2018-04-01T07:59:34.763Z,51.20
2018-04-01T08:02:02.476Z,50.50
2018-04-01T08:04:29.969Z,50.30
2018-04-01T08:06:58.348Z,50.90
2018-04-01T08:09:26.050Z,46.90
2018-04-01T08:11:54.681Z,43.83
2018-04-01T08:14:22.971Z,43.37
2018-04-01T08:16:53.372Z,40.73
2018-04-01T08:19:23.697Z,39.07
2018-04-01T08:21:51.515Z,36.10
2018-04-01T08:24:21.244Z,38.97
2018-04-01T08:26:48.689Z,37.97
2018-04-01T08:29:16.249Z,33.57
2018-04-01T08:31:46.562Z,32.30
2018-04-01T08:34:14.843Z,33.27
2018-04-01T08:36:42.348Z,36.37
2018-04-01T08:39:10.173Z,36.80
2018-04-01T08:41:37.618Z,38.23
2018-04-01T08:44:05.323Z,36.27
2018-04-01T08:46:33.041Z,37.57
2018-04-01T08:49:00.772Z,39.47
2018-04-01T08:51:29.073Z,36.77
2018-04-01T08:53:56.605Z,33.83
2018-04-01T08:56:24.560Z,31.57
2018-04-01T08:58:52.077Z,34.43
2018-04-01T09:01:19.874Z,37.13
2018-04-01T09:03:47.407Z,36.67
2018-04-01T09:06:15.957Z,38.43
2018-04-01T09:08:43.515Z,38.53
2018-04-01T09:11:11.031Z,36.50
2018-04-01T09:13:43.769Z,32.70
2018-04-01T09:16:12.171Z,35.00
2018-04-01T09:18:39.675Z,33.17
2018-04-01T09:21:09.204Z,32.03
2018-04-01T09:23:39.293Z,36.23
2018-04-01T09:26:07.077Z,30.50
2018-04-01T09:28:37.610Z,35.00
2018-04-01T09:31:06.999Z,35.63
2018-04-01T09:33:35.354Z,37.37
2018-04-01T09:36:03.003Z,31.47
2018-04-01T09:38:31.531Z,33.70
2018-04-01T09:41:00.108Z,32.07
2018-04-01T09:43:27.623Z,35.67
2018-04-01T09:45:55.173Z,34.03
2018-04-01T09:48:22.680Z,32.10
2018-04-01T09:50:50.950Z,30.63
2018-04-01T09:53:18.470Z,30.07
2018-04-01T09:55:45.966Z,30.20
2018-04-01T09:58:13.821Z,32.30
2018-04-01T10:00:42.079Z,34.07
2018-04-01T10:03:10.482Z,34.63
2018-04-01T10:05:41.707Z,40.37
2018-04-01T10:08:09.210Z,35.50
2018-04-01T10:10:36.989Z,36.53
2018-04-01T10:13:04.479Z,32.30
2018-04-01T10:15:31.970Z,33.80
2018-04-01T10:17:59.435Z,31.40
2018-04-01T10:20:26.986Z,31.60
2018-04-01T10:22:55.522Z,30.97
2018-04-01T10:25:23.905Z,29.83
2018-04-01T10:27:52.028Z,30.93
2018-04-01T10:30:19.552Z,29.33
2018-04-01T10:32:47.908Z,28.83
2018-04-01T10:35:15.457Z,29.90
2018-04-01T10:37:42.986Z,31.90
2018-04-01T10:40:10.545Z,31.30
2018-04-01T10:42:38.930Z,29.30
2018-04-01T10:45:06.497Z,28.30
2018-04-01T10:47:34.042Z,24.83
2018-04-01T10:50:02.428Z,23.60
2018-04-01T10:52:29.940Z,23.80
2018-04-01T10:54:57.932Z,23.47
2018-04-01T10:57:25.423Z,21.53
2018-04-01T10:59:52.971Z,22.20
2018-04-01T11:02:20.474Z,21.10
2018-04-01T11:04:48.518Z,20.00
2018-04-01T11:07:16.263Z,21.27
2018-04-01T11:09:43.775Z,19.07
2018-04-01T11:12:11.281Z,19.10
2018-04-01T11:14:38.833Z,20.23
2018-04-01T11:17:06.965Z,17.80
2018-04-01T11:19:34.458Z,19.10
2018-04-01T11:22:01.979Z,18.13
2018-04-01T11:24:29.479Z,18.37
2018-04-01T11:26:56.999Z,17.57
2018-04-01T11:29:24.488Z,18.03
2018-04-01T11:31:52.374Z,18.77
2018-04-01T11:34:19.874Z,18.60
2018-04-01T11:36:47.898Z,18.93
2018-04-01T11:39:16.214Z,19.20
2018-04-01T11:41:45.030Z,19.00
2018-04-01T11:44:12.761Z,18.67
2018-04-01T11:46:41.022Z,20.33
2018-04-01T11:49:09.093Z,23.47
2018-04-01T11:51:37.443Z,20.50
2018-04-01T11:54:05.997Z,21.87
2018-04-01T11:56:33.564Z,21.43
2018-04-01T11:59:01.092Z,19.10
2018-04-01T12:01:31.068Z,19.43
2018-04-01T12:04:00.466Z,20.13
2018-04-01T12:06:28.751Z,22.90
2018-04-01T12:08:59.368Z,24.20
2018-04-01T12:11:27.100Z,26.47
2018-04-01T12:13:56.070Z,29.77
2018-04-01T12:16:23.489Z,29.37
2018-04-01T12:18:51.000Z,30.00
2018-04-01T12:21:22.456Z,30.60
2018-04-01T12:23:51.061Z,26.77
2018-04-01T12:26:18.607Z,26.70
2018-04-01T12:28:46.287Z,27.20
2018-04-01T12:31:13.861Z,27.93
2018-04-01T12:33:41.387Z,27.97
2018-04-01T12:36:08.924Z,25.60
2018-04-01T12:38:36.477Z,24.50
2018-04-01T12:41:04.060Z,24.43
2018-04-01T12:43:31.524Z,26.50
2018-04-01T12:45:59.018Z,22.93
2018-04-01T12:48:27.396Z,25.20
2018-04-01T12:50:55.216Z,23.47
2018-04-01T12:53:23.035Z,25.83
2018-04-01T12:55:50.782Z,26.70
2018-04-01T12:58:18.308Z,26.50
2018-04-01T13:00:47.113Z,27.80
2018-04-01T13:03:14.994Z,28.90
2018-04-01T13:05:43.172Z,28.43
2018-04-01T13:08:10.689Z,29.23
2018-04-01T13:10:39.191Z,27.40
2018-04-01T13:13:07.222Z,30.30
2018-04-01T13:15:36.117Z,28.47
2018-04-01T13:18:03.716Z,28.03
2018-04-01T13:20:31.166Z,28.23
2018-04-01T13:22:59.339Z,31.97
2018-04-01T13:25:27.134Z,28.30
2018-04-01T13:27:54.635Z,29.60
2018-04-01T13:30:22.223Z,30.73
2018-04-01T13:32:49.788Z,30.17
2018-04-01T13:35:17.364Z,31.87
2018-04-01T13:37:51.982Z,30.63
2018-04-01T13:40:23.445Z,31.03
2018-04-01T13:42:51.851Z,32.00
2018-04-01T13:45:19.691Z,29.40
2018-04-01T13:47:47.196Z,28.20
2018-04-01T13:50:14.903Z,29.23
2018-04-01T13:52:42.445Z,26.37
2018-04-01T13:55:09.940Z,25.17
2018-04-01T13:57:37.399Z,29.67
2018-04-01T14:00:05.046Z,26.77
2018-04-01T14:02:32.564Z,26.50
2018-04-01T14:05:01.590Z,27.30
2018-04-01T14:07:29.127Z,25.93
2018-04-01T14:09:56.654Z,26.73
2018-04-01T14:12:24.155Z,24.37
2018-04-01T14:14:51.724Z,23.83
2018-04-01T14:17:19.210Z,24.90
2018-04-01T14:19:46.746Z,26.97
2018-04-01T14:22:14.273Z,26.00
2018-04-01T14:24:41.777Z,26.43
2018-04-01T14:27:09.346Z,25.30
2018-04-01T14:29:36.870Z,25.67
2018-04-01T14:32:05.220Z,25.10
2018-04-01T14:34:32.739Z,26.60
2018-04-01T14:37:00.234Z,32.60
2018-04-01T14:39:27.856Z,29.00
2018-04-01T14:41:56.248Z,28.47
2018-04-01T14:44:24.556Z,27.37
2018-04-01T14:46:53.895Z,27.17
2018-04-01T14:49:21.493Z,22.63
2018-04-01T14:51:50.043Z,19.97
2018-04-01T14:54:17.754Z,20.47
2018-04-01T14:56:45.266Z,19.57
2018-04-01T14:59:12.855Z,21.47
2018-04-01T15:01:40.436Z,18.43
2018-04-01T15:04:08.037Z,19.50
2018-04-01T15:06:35.649Z,19.70
2018-04-01T15:09:03.148Z,22.17
2018-04-01T15:11:30.632Z,20.77
2018-04-01T15:13:58.887Z,22.30
2018-04-01T15:16:26.443Z,21.73
2018-04-01T15:18:53.937Z,23.77
2018-04-01T15:21:21.620Z,27.27
2018-04-01T15:23:49.167Z,30.27
2018-04-01T15:26:17.513Z,29.83
2018-04-01T15:28:45.767Z,29.40
2018-04-01T15:31:13.283Z,27.60
2018-04-01T15:33:40.806Z,29.93
2018-04-01T15:36:08.370Z,30.60
2018-04-01T15:38:35.923Z,27.80
2018-04-01T15:41:04.238Z,25.80
2018-04-01T15:43:32.481Z,26.57
2018-04-01T15:46:00.645Z,26.87
2018-04-01T15:48:28.163Z,27.37
2018-04-01T15:50:55.642Z,25.37
2018-04-01T15:53:23.170Z,27.13
2018-04-01T15:55:50.691Z,25.70
2018-04-01T15:58:18.242Z,24.53
2018-04-01T16:00:45.768Z,25.20
2018-04-01T16:03:13.371Z,21.57
2018-04-01T16:05:40.858Z,23.87
2018-04-01T16:08:09.102Z,22.87
2018-04-01T16:10:36.733Z,24.27
2018-04-01T16:13:04.270Z,25.03
2018-04-01T16:15:31.775Z,24.27
2018-04-01T16:17:59.616Z,24.70
2018-04-01T16:20:27.109Z,24.17
2018-04-01T16:22:54.643Z,23.50
2018-04-01T16:25:22.157Z,24.93
2018-04-01T16:27:51.132Z,26.00
2018-04-01T16:30:18.658Z,26.63
2018-04-01T16:32:46.144Z,25.27
2018-04-01T16:35:13.708Z,24.53
2018-04-01T16:37:41.149Z,25.33
2018-04-01T16:40:08.913Z,21.83
2018-04-01T16:42:37.095Z,24.63
2018-04-01T16:45:04.628Z,24.20
2018-04-01T16:47:32.183Z,25.63
2018-04-01T16:49:59.628Z,26.43
2018-04-01T16:52:27.212Z,22.60
2018-04-01T16:54:54.714Z,22.80
2018-04-01T16:57:22.239Z,20.47
2018-04-01T16:59:51.553Z,22.00
2018-04-01T17:02:19.021Z,19.90
2018-04-01T17:04:47.084Z,18.87
2018-04-01T17:07:14.608Z,20.83
2018-04-01T17:09:45.503Z,20.23
2018-04-01T17:12:13.062Z,18.27
2018-04-01T17:14:40.564Z,17.73
2018-04-01T17:17:08.110Z,18.50
2018-04-01T17:19:35.658Z,21.73
2018-04-01T17:22:03.736Z,22.03
2018-04-01T17:24:31.880Z,20.63
2018-04-01T17:27:00.203Z,21.13
2018-04-01T17:29:27.679Z,23.07
2018-04-01T17:31:55.410Z,22.30
2018-04-01T17:34:22.912Z,21.87
2018-04-01T17:36:50.424Z,19.10
2018-04-01T17:39:17.916Z,20.60
2018-04-01T17:41:45.415Z,21.53
2018-04-01T17:44:14.229Z,21.83
2018-04-01T17:46:41.683Z,22.43
2018-04-01T17:49:09.228Z,20.00
2018-04-01T17:51:36.748Z,26.07
2018-04-01T17:54:04.259Z,42.20
2018-04-01T17:56:31.784Z,38.47
2018-04-01T17:58:59.319Z,51.20
2018-04-01T18:01:26.815Z,37.43
2018-04-01T18:03:54.289Z,58.13
2018-04-01T18:06:21.891Z,71.80
2018-04-01T18:08:49.453Z,62.37
2018-04-01T18:11:16.947Z,50.80
2018-04-01T18:13:44.482Z,66.20
2018-04-01T18:16:11.983Z,32.00
2018-04-01T18:18:39.478Z,37.70
2018-04-01T18:21:06.997Z,39.50
2018-04-01T18:23:34.523Z,30.30
2018-04-01T18:26:02.031Z,38.73
2018-04-01T18:28:29.616Z,38.37
2018-04-01T18:30:57.140Z,46.70
2018-04-01T18:33:24.838Z,47.33
2018-04-01T18:35:52.355Z,80.10
2018-04-01T18:38:19.946Z,138.47
2018-04-01T18:40:47.452Z,141.23
2018-04-01T18:43:14.957Z,141.33
2018-04-01T18:45:42.541Z,100.33
2018-04-01T18:48:10.098Z,100.90
2018-04-01T18:50:37.752Z,62.13
2018-04-01T18:53:05.180Z,47.40
2018-04-01T18:55:32.713Z,40.97
2018-04-01T18:58:00.179Z,40.73
2018-04-01T19:00:27.642Z,36.93
2018-04-01T19:02:55.152Z,37.53
2018-04-01T19:05:23.393Z,33.63
2018-04-01T19:07:50.874Z,35.47
2018-04-01T19:10:18.993Z,37.77
2018-04-01T19:12:46.671Z,37.30
2018-04-01T19:15:14.312Z,35.73
2018-04-01T19:17:42.568Z,36.53
2018-04-01T19:20:10.091Z,36.53
2018-04-01T19:22:37.660Z,37.37
2018-04-01T19:25:05.252Z,39.77
2018-04-01T19:27:32.720Z,39.97
2018-04-01T19:30:00.230Z,39.77
2018-04-01T19:32:27.759Z,41.80
2018-04-01T19:34:55.902Z,43.03
2018-04-01T19:37:23.417Z,48.87
2018-04-01T19:39:51.701Z,50.53
2018-04-01T19:42:19.245Z,52.37
2018-04-01T19:44:46.814Z,52.73
2018-04-01T19:47:14.353Z,57.97
2018-04-01T19:49:41.834Z,57.27
2018-04-01T19:52:09.315Z,56.13
2018-04-01T19:54:38.100Z,58.30
2018-04-01T19:57:05.650Z,56.00
2018-04-01T19:59:33.182Z,58.50
2018-04-01T20:02:01.585Z,56.40
2018-04-01T20:04:29.085Z,56.37
2018-04-01T20:06:57.362Z,55.60
2018-04-01T20:09:25.154Z,59.27
2018-04-01T20:11:52.720Z,57.90
2018-04-01T20:14:20.267Z,58.77
2018-04-01T20:16:48.560Z,59.90
2018-04-01T20:19:16.187Z,59.77
2018-04-01T20:21:44.422Z,59.63
2018-04-01T20:24:11.900Z,61.90
2018-04-01T20:26:39.420Z,52.37
2018-04-01T20:29:06.898Z,49.87
2018-04-01T20:31:34.531Z,48.13
2018-04-01T20:34:02.142Z,45.23
2018-04-01T20:36:29.674Z,45.60
2018-04-01T20:38:57.978Z,43.70
2018-04-01T20:41:26.253Z,42.73
2018-04-01T20:43:53.830Z,43.40
2018-04-01T20:46:21.410Z,41.27
2018-04-01T20:48:48.891Z,40.37
2018-04-01T20:51:16.407Z,41.57
2018-04-01T20:53:43.913Z,43.50
2018-04-01T20:56:11.516Z,50.43
2018-04-01T20:58:38.980Z,49.80
2018-04-01T21:01:06.569Z,48.80
2018-04-01T21:03:34.878Z,47.50
2018-04-01T21:06:02.489Z,47.53
2018-04-01T21:08:30.013Z,49.97
2018-04-01T21:10:57.468Z,45.30
2018-04-01T21:13:25.018Z,46.93
2018-04-01T21:15:52.475Z,46.73
2018-04-01T21:18:20.036Z,51.10
2018-04-01T21:20:48.899Z,58.83
2018-04-01T21:23:16.411Z,60.37
2018-04-01T21:25:43.907Z,61.77
2018-04-01T21:28:11.417Z,63.07
2018-04-01T21:30:39.585Z,63.77
2018-04-01T21:33:07.895Z,57.97
2018-04-01T21:35:35.428Z,59.07
2018-04-01T21:38:03.682Z,57.17
2018-04-01T21:40:32.002Z,58.37
2018-04-01T21:42:59.521Z,60.33
2018-04-01T21:45:27.047Z,62.80
2018-04-01T21:47:54.576Z,74.07
2018-04-01T21:50:22.129Z,84.90
2018-04-01T21:52:50.404Z,92.00
2018-04-01T21:55:18.717Z,91.77
2018-04-01T21:57:46.224Z,93.27
2018-04-01T22:00:13.770Z,92.07
2018-04-01T22:02:41.393Z,91.57
2018-04-01T22:05:08.888Z,93.13
2018-04-01T22:07:36.399Z,91.83
2018-04-01T22:10:04.680Z,84.10
2018-04-01T22:12:32.174Z,81.27
2018-04-01T22:14:59.627Z,81.23
2018-04-01T22:17:27.215Z,81.20
2018-04-01T22:19:55.404Z,79.93
2018-04-01T22:22:22.927Z,78.77
2018-04-01T22:24:50.472Z,82.47
2018-04-01T22:27:18.151Z,81.93
2018-04-01T22:29:46.426Z,75.17
2018-04-01T22:32:14.711Z,84.17
2018-04-01T22:34:43.144Z,84.40
2018-04-01T22:37:10.638Z,77.87
2018-04-01T22:39:38.120Z,82.90
2018-04-01T22:42:06.406Z,84.50
2018-04-01T22:44:34.663Z,91.77
2018-04-01T22:47:02.210Z,92.63
2018-04-01T22:49:29.749Z,101.17
2018-04-01T22:51:57.212Z,98.47
2018-04-01T22:54:24.740Z,100.67
2018-04-01T22:56:52.344Z,103.10
2018-04-01T22:59:20.601Z,102.33
2018-04-01T23:01:48.070Z,103.90
2018-04-01T23:04:15.583Z,105.13
2018-04-01T23:06:43.115Z,110.40
2018-04-01T23:09:10.628Z,114.03
2018-04-01T23:11:38.142Z,120.50
2018-04-01T23:14:05.760Z,117.47
2018-04-01T23:16:33.260Z,119.63
2018-04-01T23:19:00.821Z,116.13
2018-04-01T23:21:29.085Z,123.60
2018-04-01T23:23:56.611Z,117.63
2018-04-01T23:26:24.104Z,120.33
2018-04-01T23:28:52.374Z,124.50
2018-04-01T23:31:20.644Z,132.83
2018-04-01T23:33:48.195Z,118.30
2018-04-01T23:36:15.715Z,124.23
2018-04-01T23:38:43.185Z,127.90
2018-04-01T23:41:10.697Z,132.07
2018-04-01T23:43:39.028Z,132.47
2018-04-01T23:46:06.565Z,137.13
2018-04-01T23:48:34.873Z,136.50
2018-04-01T23:51:03.148Z,135.33
2018-04-01T23:53:30.662Z,139.53
2018-04-01T23:55:58.163Z,139.40
2018-04-01T23:58:25.760Z,133.83
